createdAt,value
2022-08-26T00:02:10.726Z,2.98
2022-08-26T00:07:18.245Z,2.98
2022-08-26T00:12:25.841Z,2.98
2022-08-26T00:17:33.743Z,2.99
2022-08-26T00:22:41.777Z,3.0
2022-08-26T00:27:50.483Z,2.98
2022-08-26T00:32:58.879Z,2.99
2022-08-26T00:38:05.671Z,2.99
2022-08-26T00:43:12.219Z,2.98
2022-08-26T00:48:19.568Z,2.98
2022-08-26T00:53:26.619Z,2.98
2022-08-26T00:58:34.390Z,2.98
2022-08-26T01:03:41.672Z,2.99
2022-08-26T01:08:48.885Z,2.98
2022-08-26T01:13:56.347Z,2.98
2022-08-26T01:19:03.674Z,2.98
2022-08-26T01:24:10.843Z,3.0
2022-08-26T01:29:18.642Z,2.98
2022-08-26T01:34:27.349Z,2.99
2022-08-26T01:39:34.625Z,2.99
2022-08-26T01:44:42.149Z,2.98
2022-08-26T01:49:49.679Z,2.99
2022-08-26T01:54:56.364Z,2.98
2022-08-26T02:00:03.417Z,2.98
2022-08-26T02:05:10.917Z,2.98
2022-08-26T02:10:17.824Z,2.98
2022-08-26T02:15:25.041Z,3.0
2022-08-26T02:20:32.599Z,2.98
2022-08-26T02:25:40.257Z,2.99
2022-08-26T02:30:48.531Z,2.98
2022-08-26T02:35:56.180Z,2.99
2022-08-26T02:41:03.139Z,2.98
2022-08-26T02:46:11.637Z,2.98
2022-08-26T02:51:19.323Z,2.98
2022-08-26T02:56:27.412Z,2.99
2022-08-26T03:01:34.295Z,2.98
2022-08-26T03:06:42.131Z,2.99
2022-08-26T03:11:49.733Z,2.97
2022-08-26T03:16:57.511Z,2.99
2022-08-26T03:22:04.368Z,2.97
2022-08-26T03:27:14.007Z,2.98
2022-08-26T03:32:22.485Z,2.98
2022-08-26T03:37:35.267Z,2.99
2022-08-26T03:42:42.152Z,2.98
2022-08-26T03:47:50.043Z,2.98
2022-08-26T03:52:57.496Z,2.98
2022-08-26T03:58:05.737Z,2.97
2022-08-26T04:03:12.838Z,2.98
2022-08-26T04:08:20.998Z,2.98
2022-08-26T04:13:29.168Z,2.98
2022-08-26T04:18:36.450Z,2.98
2022-08-26T04:23:42.937Z,2.98
2022-08-26T04:28:52.238Z,2.99
2022-08-26T04:34:05.802Z,2.98
2022-08-26T04:39:14.010Z,3.0
2022-08-26T04:44:21.416Z,2.98
2022-08-26T04:49:29.468Z,2.98
2022-08-26T04:54:37.048Z,2.98
2022-08-26T04:59:45.665Z,2.99
2022-08-26T05:04:52.705Z,2.98
2022-08-26T05:09:59.135Z,2.99
2022-08-26T05:15:07.098Z,3.0
2022-08-26T05:20:15.145Z,2.98
2022-08-26T05:25:23.945Z,2.98
2022-08-26T05:30:32.411Z,2.98
2022-08-26T05:35:39.769Z,3.0
2022-08-26T05:40:48.087Z,2.99
2022-08-26T05:45:55.396Z,3.0
2022-08-26T05:51:02.639Z,2.99
2022-08-26T05:56:09.483Z,2.99
2022-08-26T06:01:17.843Z,3.0
2022-08-26T06:06:24.243Z,2.99
2022-08-26T06:11:31.754Z,3.0
2022-08-26T06:16:40.480Z,3.0
2022-08-26T06:21:49.133Z,3.0
2022-08-26T06:26:58.093Z,3.0
2022-08-26T06:32:05.940Z,3.0
2022-08-26T06:37:14.660Z,3.0
2022-08-26T06:42:23.053Z,3.0
2022-08-26T06:47:30.812Z,3.0
2022-08-26T06:52:38.008Z,3.0
2022-08-26T06:57:46.328Z,3.01
2022-08-26T07:02:54.238Z,3.0
2022-08-26T07:08:01.784Z,3.0
2022-08-26T07:13:09.645Z,3.0
2022-08-26T07:18:17.521Z,3.0
2022-08-26T07:23:25.367Z,3.01
2022-08-26T07:28:32.309Z,3.01
2022-08-26T07:33:40.229Z,3.01
2022-08-26T07:38:47.115Z,3.01
2022-08-26T07:43:54.801Z,3.01
2022-08-26T07:49:02.480Z,3.0
2022-08-26T07:54:10.333Z,3.01
2022-08-26T07:59:18.619Z,3.02
2022-08-26T08:04:26.116Z,3.02
2022-08-26T08:09:33.659Z,3.01
2022-08-26T08:14:41.473Z,3.01
2022-08-26T08:19:48.691Z,3.01
2022-08-26T08:24:55.958Z,3.01
2022-08-26T08:30:04.244Z,3.01
2022-08-26T08:35:11.692Z,3.01
2022-08-26T08:40:19.691Z,3.01
2022-08-26T08:45:27.290Z,3.01
2022-08-26T08:50:35.188Z,3.0
2022-08-26T08:55:42.317Z,3.01
2022-08-26T09:00:50.122Z,3.01
2022-08-26T09:05:57.468Z,3.01
2022-08-26T09:11:04.558Z,3.01
2022-08-26T09:16:12.378Z,3.02
2022-08-26T09:21:19.966Z,3.02
2022-08-26T09:26:26.773Z,3.02
2022-08-26T09:31:34.573Z,3.01
2022-08-26T09:36:42.255Z,3.01
2022-08-26T09:41:50.807Z,3.01
2022-08-26T09:46:58.569Z,3.01
2022-08-26T09:52:05.964Z,3.02
2022-08-26T09:57:14.655Z,3.02
2022-08-26T10:02:22.062Z,3.02
2022-08-26T10:07:30.132Z,3.01
2022-08-26T10:12:37.336Z,3.02
2022-08-26T10:17:45.682Z,3.02
2022-08-26T10:22:52.591Z,3.02
2022-08-26T10:28:01.171Z,3.02
2022-08-26T10:33:08.049Z,3.02
2022-08-26T10:38:15.929Z,3.02
2022-08-26T10:43:24.107Z,3.02
2022-08-26T10:48:31.707Z,3.02
2022-08-26T10:53:39.402Z,3.01
2022-08-26T10:58:46.171Z,3.02
2022-08-26T11:03:53.177Z,3.02
2022-08-26T11:09:01.018Z,3.02
2022-08-26T11:14:08.974Z,3.02
2022-08-26T11:19:17.201Z,3.02
2022-08-26T11:24:25.634Z,3.02
2022-08-26T11:29:33.007Z,3.03
2022-08-26T11:34:40.253Z,3.03
2022-08-26T11:39:49.275Z,3.02
2022-08-26T11:44:57.382Z,3.02
2022-08-26T11:50:05.231Z,3.03
2022-08-26T11:55:13.483Z,3.03
2022-08-26T12:00:20.784Z,3.03
2022-08-26T12:05:28.573Z,3.02
2022-08-26T12:10:36.398Z,3.02
2022-08-26T12:15:44.288Z,3.02
2022-08-26T12:20:51.365Z,3.02
2022-08-26T12:25:59.260Z,3.03
2022-08-26T12:31:07.826Z,3.03
2022-08-26T12:36:16.401Z,3.02
2022-08-26T12:41:24.175Z,3.02
2022-08-26T12:46:37.664Z,3.03
2022-08-26T12:51:44.224Z,3.02
2022-08-26T12:56:51.419Z,3.02
2022-08-26T13:01:59.265Z,3.03
2022-08-26T13:07:06.712Z,3.02
2022-08-26T13:12:13.701Z,3.02
2022-08-26T13:17:21.445Z,3.02
2022-08-26T13:22:29.668Z,3.03
2022-08-26T13:27:37.179Z,3.02
2022-08-26T13:32:44.545Z,3.04
2022-08-26T13:37:52.177Z,3.02
2022-08-26T13:43:00.354Z,3.02
2022-08-26T13:48:09.387Z,3.02
2022-08-26T13:53:16.314Z,3.03
2022-08-26T13:58:22.934Z,3.03
2022-08-26T14:03:30.397Z,3.02
2022-08-26T14:08:39.058Z,3.03
2022-08-26T14:13:46.198Z,3.02
2022-08-26T14:18:53.709Z,3.03
2022-08-26T14:25:32.974Z,3.02
2022-08-26T14:30:38.935Z,3.02
2022-08-26T14:35:45.500Z,3.02
2022-08-26T14:40:52.661Z,3.03
2022-08-26T14:46:00.506Z,3.02
2022-08-26T14:51:07.596Z,3.03
2022-08-26T14:56:16.594Z,3.03
2022-08-26T15:01:24.766Z,3.02
2022-08-26T15:06:32.246Z,3.02
2022-08-26T15:11:39.788Z,3.03
2022-08-26T15:16:47.449Z,3.03
2022-08-26T15:21:54.167Z,3.03
2022-08-26T15:27:01.374Z,3.02
2022-08-26T15:32:12.358Z,3.03
2022-08-26T15:37:20.217Z,3.02
2022-08-26T15:42:26.134Z,3.02
2022-08-26T15:47:32.699Z,3.03
2022-08-26T15:52:39.850Z,3.02
2022-08-26T15:57:46.636Z,3.03
2022-08-26T16:02:54.167Z,3.02
2022-08-26T16:08:01.075Z,3.02
2022-08-26T16:13:08.433Z,3.01
2022-08-26T16:18:14.891Z,3.02
2022-08-26T16:23:21.826Z,3.02
2022-08-26T16:28:29.330Z,3.03
2022-08-26T16:33:37.502Z,3.02
2022-08-26T16:38:44.633Z,3.02
2022-08-26T16:43:52.479Z,3.02
2022-08-26T16:48:59.401Z,3.02
2022-08-26T16:54:06.036Z,3.02
2022-08-26T16:59:14.303Z,3.03
2022-08-26T17:04:21.711Z,3.03
2022-08-26T17:09:29.823Z,3.02
2022-08-26T17:14:38.171Z,3.02
2022-08-26T17:19:46.011Z,3.02
2022-08-26T17:24:53.853Z,3.02
2022-08-26T17:30:00.542Z,3.02
2022-08-26T17:35:07.743Z,3.02
2022-08-26T17:40:15.354Z,3.02
2022-08-26T17:45:22.821Z,3.01
2022-08-26T17:50:30.671Z,3.01
2022-08-26T17:55:39.088Z,3.02
2022-08-26T18:00:47.023Z,3.02
2022-08-26T18:05:54.027Z,3.01
2022-08-26T18:11:00.249Z,3.02
2022-08-26T18:16:07.259Z,3.02
2022-08-26T18:21:14.462Z,3.01
2022-08-26T18:26:21.656Z,3.01
2022-08-26T18:31:29.821Z,3.01
2022-08-26T18:36:37.424Z,3.02
2022-08-26T18:41:45.293Z,3.02
2022-08-26T18:46:53.051Z,3.01
2022-08-26T18:52:04.109Z,3.02
2022-08-26T18:57:17.049Z,3.02
2022-08-26T19:02:23.579Z,3.02
2022-08-26T19:07:30.201Z,3.01
2022-08-26T19:12:37.340Z,3.02
2022-08-26T19:17:44.536Z,3.02
2022-08-26T19:23:06.730Z,3.02
2022-08-26T19:28:15.297Z,3.02
2022-08-26T19:33:23.046Z,3.02
2022-08-26T19:38:30.290Z,3.01
2022-08-26T19:43:44.729Z,3.02
2022-08-26T19:48:50.778Z,3.01
2022-08-26T19:53:58.618Z,3.02
2022-08-26T19:59:05.178Z,3.01
2022-08-26T20:04:12.954Z,3.01
2022-08-26T20:09:20.379Z,3.02
2022-08-26T20:14:28.062Z,3.01
2022-08-26T20:19:35.256Z,3.02
2022-08-26T20:24:42.458Z,3.02
2022-08-26T20:29:50.808Z,3.01
2022-08-26T20:34:58.894Z,3.01
2022-08-26T20:40:08.331Z,3.0
2022-08-26T20:45:15.305Z,3.01
2022-08-26T20:50:22.300Z,3.01
2022-08-26T20:55:29.631Z,3.01
2022-08-26T21:00:38.036Z,3.01
2022-08-26T21:05:43.880Z,3.01
2022-08-26T21:10:49.850Z,3.0
2022-08-26T21:15:58.806Z,3.01
2022-08-26T21:21:06.006Z,3.01
2022-08-26T21:26:13.342Z,3.01
2022-08-26T21:31:20.839Z,3.01
2022-08-26T21:36:28.371Z,3.0
2022-08-26T21:41:37.295Z,3.01
2022-08-26T21:46:45.036Z,3.01
2022-08-26T21:51:52.407Z,3.01
2022-08-26T21:56:59.933Z,3.01
2022-08-26T22:03:38.498Z,3.0
2022-08-26T22:08:45.018Z,3.01
2022-08-26T22:13:52.216Z,3.02
2022-08-26T22:18:59.455Z,3.01
2022-08-26T22:24:06.947Z,3.0
2022-08-26T22:29:15.720Z,3.0
2022-08-26T22:34:22.641Z,3.02
2022-08-26T22:39:30.172Z,3.0
2022-08-26T22:44:38.276Z,3.0
2022-08-26T22:49:45.816Z,3.01
2022-08-26T22:54:53.979Z,3.01
2022-08-26T23:00:02.019Z,3.01
2022-08-26T23:05:09.336Z,3.0
2022-08-26T23:10:16.562Z,3.0
2022-08-26T23:15:23.737Z,3.0
2022-08-26T23:20:32.531Z,3.0
2022-08-26T23:25:41.070Z,3.0
2022-08-26T23:30:49.343Z,3.01
2022-08-26T23:35:57.616Z,3.0
2022-08-26T23:41:04.859Z,3.0
2022-08-26T23:46:12.711Z,3.01
2022-08-26T23:51:20.602Z,3.01
2022-08-26T23:56:28.414Z,3.01
